Abingdon, Virginia
Current Conditions -  °F | °C
As of 2:15 PM on Monday 22 Dec 2014 (Local Time) from KVJI Reporting Station
Clear Clear  
Wind Chill: 57°   Ceiling: Unl
Heat Index: 57°   Visibility: 10mi
Dew Point: 42°   Wind: 14mph
Humidity: 57%   Direction: 80°E
Pressure: 29.9"   Gusts: NA
Location:  36.71°N, 81.98°W
Report Text: KVJI 221915Z AUTO 08012KT 10SM CLR 14/05 A2990 RMK AO2 T01370054
Loading
Personal Weather Stations






























Interactive Weather Map New forecast layout! Learn more

10-Day Weather Forecast

Advertisements
Track Severe Weather on mobile